Time;durP1;ratioP1;P1;durP2;ratioP2;P2;SDS_P1;SDS_P2;PMS_P1;PMS_P2;Temp;Humidity;BMP_temperature;BMP_pressure;BME280_temperature;BME280_humidity;BME280_pressure;Samples;Min_cycle;Max_cycle;Signal;HPM_P1;HPM_P2
2022/01/08 00:01:09;;;;;;;3.88;1.50;;;;;;;0.03;79.05;96908.66;5040725;28;20045;-60
2022/01/08 00:03:36;;;;;;;4.50;1.38;;;;;;;0.07;78.88;96890.47;5040923;28;20389;-60
2022/01/08 00:06:03;;;;;;;2.90;1.15;;;;;;;0.06;79.08;96889.63;5035115;28;20440;-62
2022/01/08 00:08:30;;;;;;;6.60;1.65;;;;;;;0.09;78.28;96885.75;5031808;28;20037;-60
2022/01/08 00:10:57;;;;;;;4.60;2.38;;;;;;;0.06;79.01;96884.31;5032805;28;20034;-59
2022/01/08 00:13:24;;;;;;;4.32;1.23;;;;;;;0.10;79.19;96861.59;5032175;28;20037;-61
2022/01/08 00:15:51;;;;;;;3.35;2.05;;;;;;;0.17;79.62;96852.81;5046748;28;20041;-60
2022/01/08 00:18:17;;;;;;;2.15;1.33;;;;;;;0.17;78.76;96839.50;5047746;28;20049;-59
2022/01/08 00:20:44;;;;;;;3.35;1.05;;;;;;;0.22;78.95;96829.91;5036226;28;20041;-60
2022/01/08 00:23:11;;;;;;;4.47;1.85;;;;;;;0.20;78.25;96829.28;5042225;28;20052;-60
2022/01/08 00:25:37;;;;;;;2.70;1.15;;;;;;;0.21;77.98;96838.06;5027105;28;20048;-60
2022/01/08 00:28:04;;;;;;;1.67;1.08;;;;;;;0.30;78.16;96844.91;5028722;28;20048;-60
2022/01/08 00:30:31;;;;;;;3.55;1.15;;;;;;;0.32;78.01;96839.34;5031354;28;20041;-59
2022/01/08 00:32:59;;;;;;;2.40;1.23;;;;;;;0.27;78.17;96839.97;5035323;28;20642;-60
2022/01/08 00:35:31;;;;;;;1.73;1.13;;;;;;;0.32;78.52;96826.88;5038135;28;20503;-60
2022/01/08 00:37:58;;;;;;;2.95;1.40;;;;;;;0.22;78.66;96829.91;5032971;28;20045;-61
2022/01/08 00:40:27;;;;;;;3.10;1.45;;;;;;;0.32;78.04;96826.03;5030042;28;20107;-61
2022/01/08 00:42:54;;;;;;;3.72;1.40;;;;;;;0.41;78.27;96821.34;5023343;28;20051;-60
2022/01/08 00:45:20;;;;;;;3.08;1.20;;;;;;;0.39;77.88;96821.56;5034945;28;20041;-61
2022/01/08 00:47:47;;;;;;;3.40;1.20;;;;;;;0.27;78.25;96810.66;5034327;28;20030;-61
2022/01/08 00:50:14;;;;;;;2.95;1.40;;;;;;;0.31;78.41;96809.25;5036218;28;20047;-60
2022/01/08 00:52:41;;;;;;;2.47;1.00;;;;;;;0.27;78.55;96813.34;5045284;28;20040;-60
2022/01/08 00:55:09;;;;;;;4.00;1.20;;;;;;;0.30;78.33;96802.28;5030637;28;20049;-60
2022/01/08 00:57:36;;;;;;;2.85;1.38;;;;;;;0.39;78.20;96797.59;5039147;28;20674;-61
2022/01/08 01:00:05;;;;;;;2.25;1.10;;;;;;;0.36;78.17;96785.50;5045111;28;20056;-60
2022/01/08 01:02:32;;;;;;;2.65;1.40;;;;;;;0.37;78.10;96776.47;5033075;28;20044;-60
2022/01/08 01:04:58;;;;;;;2.55;1.42;;;;;;;0.35;78.93;96778.53;5035674;28;20471;-62
2022/01/08 01:07:25;;;;;;;2.45;1.38;;;;;;;0.37;79.15;96768.47;5025990;28;20048;-59
2022/01/08 01:09:52;;;;;;;1.90;1.10;;;;;;;0.34;79.37;96762.75;5027172;28;20049;-59
2022/01/08 01:12:18;;;;;;;1.88;1.15;;;;;;;0.30;79.74;96764.16;5032989;28;21214;-59
2022/01/08 01:15:06;;;;;;;2.30;1.30;;;;;;;0.30;80.13;96765.00;5027378;28;20045;-59
2022/01/08 01:17:33;;;;;;;3.83;2.17;;;;;;;0.35;79.44;96757.22;5028867;28;20068;-59
2022/01/08 01:19:59;;;;;;;2.65;1.52;;;;;;;0.36;79.84;96750.88;5029237;28;20038;-59
2022/01/08 01:22:30;;;;;;;2.60;1.42;;;;;;;0.37;79.66;96749.84;5035310;28;20045;-59
2022/01/08 01:25:04;;;;;;;2.92;1.40;;;;;;;0.38;79.33;96740.03;5027865;28;20033;-60
2022/01/08 01:27:56;;;;;;;3.92;1.50;;;;;;;0.43;79.60;96737.56;5027202;28;20049;-59
2022/01/08 01:30:51;;;;;;;4.25;1.48;;;;;;;0.47;79.08;96721.97;5029130;28;20505;-61
2022/01/08 01:41:12;;;;;;;4.22;1.52;;;;;;;0.44;79.27;96704.56;5039807;28;20049;-61
2022/01/08 01:47:10;;;;;;;6.18;1.85;;;;;;;0.50;79.97;96676.31;5016612;28;20055;-60
2022/01/08 01:49:43;;;;;;;4.70;1.65;;;;;;;0.53;79.77;96665.25;5028362;28;20080;-60
2022/01/08 01:52:13;;;;;;;3.35;1.67;;;;;;;0.58;80.36;96643.28;5033222;28;20045;-60
2022/01/08 01:54:40;;;;;;;4.18;1.95;;;;;;;0.53;80.12;96651.91;5035018;28;20038;-60
2022/01/08 01:57:10;;;;;;;4.07;1.98;;;;;;;0.54;80.93;96650.88;5042198;28;20712;-60
2022/01/08 01:59:37;;;;;;;3.13;1.83;;;;;;;0.44;80.81;96647.84;5040278;28;20041;-59
2022/01/08 02:02:04;;;;;;;4.45;1.73;;;;;;;0.53;81.00;96646.59;5033710;28;20098;-59
2022/01/08 02:04:31;;;;;;;5.85;1.65;;;;;;;0.48;81.49;96659.72;5029324;28;20520;-59
2022/01/08 02:06:58;;;;;;;4.35;2.03;;;;;;;0.47;81.80;96645.56;5029085;28;20045;-60
2022/01/08 02:09:25;;;;;;;4.03;2.00;;;;;;;0.47;82.11;96648.22;5024535;28;20041;-58
2022/01/08 02:11:59;;;;;;;4.72;1.73;;;;;;;0.49;82.60;96640.88;5025758;28;20064;-59
2022/01/08 02:14:28;;;;;;;3.53;2.17;;;;;;;0.47;83.24;96647.41;5032086;28;20117;-60
2022/01/08 02:16:55;;;;;;;5.10;2.20;;;;;;;0.40;84.37;96641.28;5044410;28;20048;-59
2022/01/08 02:19:21;;;;;;;4.15;1.98;;;;;;;0.38;84.01;96630.81;5041233;28;20046;-59
2022/01/08 02:21:52;;;;;;;5.75;2.25;;;;;;;0.22;85.05;96624.06;5024940;28;20049;-60
2022/01/08 02:24:20;;;;;;;5.93;2.73;;;;;;;0.16;86.25;96622.19;5033916;28;20515;-60
2022/01/08 02:26:46;;;;;;;4.65;2.70;;;;;;;0.16;86.50;96619.53;5027811;28;20284;-60
2022/01/08 02:29:15;;;;;;;4.93;2.80;;;;;;;0.15;86.50;96601.94;5025599;28;20025;-60
2022/01/08 02:32:11;;;;;;;6.15;2.60;;;;;;;0.12;86.83;96605.81;5029099;28;20034;-60
2022/01/08 02:34:39;;;;;;;4.72;2.10;;;;;;;0.19;86.45;96588.00;5029146;28;20594;-60
2022/01/08 02:37:08;;;;;;;7.78;3.03;;;;;;;0.18;86.47;96593.53;5041746;28;20389;-60
2022/01/08 02:39:40;;;;;;;4.53;2.50;;;;;;;0.23;86.51;96589.22;5026130;28;20501;-60
2022/01/08 02:42:10;;;;;;;5.78;2.97;;;;;;;0.28;86.29;96583.28;5025462;28;20456;-60
2022/01/08 02:44:37;;;;;;;5.28;2.90;;;;;;;0.29;86.08;96570.81;5030742;28;20041;-60
2022/01/08 02:47:04;;;;;;;4.75;2.40;;;;;;;0.27;86.18;96573.66;5032842;28;20045;-60
2022/01/08 02:49:36;;;;;;;4.35;2.20;;;;;;;0.27;86.30;96568.34;5037230;28;20040;-61
2022/01/08 02:52:03;;;;;;;3.85;2.22;;;;;;;0.33;85.82;96566.72;5024283;28;20520;-61
2022/01/08 02:54:30;;;;;;;4.90;2.38;;;;;;;0.31;86.64;96561.59;5038287;28;20049;-60
2022/01/08 02:56:57;;;;;;;4.57;2.00;;;;;;;0.32;86.51;96562.38;5027967;28;20052;-60
2022/01/08 02:59:24;;;;;;;6.38;2.53;;;;;;;0.31;86.76;96542.13;5029239;28;20436;-60
2022/01/08 03:01:53;;;;;;;5.15;2.38;;;;;;;0.34;86.69;96547.03;5025338;28;20042;-59
2022/01/08 03:04:20;;;;;;;6.30;2.35;;;;;;;0.30;86.72;96545.81;5028183;28;20072;-59
2022/01/08 03:06:47;;;;;;;4.00;2.38;;;;;;;0.34;86.44;96545.16;5027493;28;20046;-59
2022/01/08 03:09:14;;;;;;;5.38;2.42;;;;;;;0.38;86.37;96541.06;5038306;28;20037;-58
2022/01/08 03:11:42;;;;;;;5.40;2.70;;;;;;;0.34;86.70;96531.06;5026204;28;20049;-59
2022/01/08 03:14:09;;;;;;;4.32;2.30;;;;;;;0.27;87.41;96536.38;5025912;28;20037;-59
2022/01/08 03:16:35;;;;;;;7.70;2.53;;;;;;;0.25;87.66;96541.09;5041827;28;20520;-59
2022/01/08 03:19:09;;;;;;;9.18;3.13;;;;;;;0.17;88.21;96536.81;5036296;28;20041;-59
2022/01/08 03:21:39;;;;;;;4.63;2.13;;;;;;;0.12;88.61;96537.41;5029988;28;20051;-59
2022/01/08 03:24:10;;;;;;;5.55;2.47;;;;;;;0.07;88.76;96537.22;5031982;28;20033;-59
2022/01/08 03:26:37;;;;;;;6.45;2.65;;;;;;;-0.02;89.37;96533.97;5030292;28;20048;-59
2022/01/08 03:29:04;;;;;;;5.95;2.88;;;;;;;-0.07;89.95;96527.59;5028842;28;20040;-59
2022/01/08 03:31:30;;;;;;;5.40;2.85;;;;;;;-0.13;90.37;96531.91;5031267;28;20665;-58
2022/01/08 03:33:57;;;;;;;4.35;2.17;;;;;;;-0.18;90.27;96519.19;5038863;28;20054;-59
2022/01/08 03:36:24;;;;;;;5.03;3.35;;;;;;;-0.25;90.46;96521.06;5038902;28;20400;-59
2022/01/08 03:38:52;;;;;;;6.80;2.85;;;;;;;-0.27;90.90;96507.94;5038198;28;20041;-60
2022/01/08 03:41:19;;;;;;;5.25;3.08;;;;;;;-0.22;90.72;96517.97;5036110;28;20057;-60
2022/01/08 03:43:47;;;;;;;5.07;2.63;;;;;;;-0.22;90.64;96517.97;5031321;28;20527;-60
2022/01/08 03:46:13;;;;;;;4.30;2.05;;;;;;;-0.05;90.55;96525.53;5030142;28;20523;-59
2022/01/08 03:51:11;;;;;;;7.53;3.10;;;;;;;-0.29;91.02;96522.47;5027486;28;20504;-60
2022/01/08 03:53:37;;;;;;;4.18;2.40;;;;;;;-0.20;91.01;96525.75;5040933;28;20045;-59
2022/01/08 03:56:05;;;;;;;6.22;3.13;;;;;;;-0.22;90.59;96517.16;5036318;28;20051;-60
2022/01/08 03:58:32;;;;;;;5.60;3.15;;;;;;;-0.19;90.83;96524.75;5029870;28;20045;-59
2022/01/08 04:00:59;;;;;;;5.35;2.90;;;;;;;-0.18;91.01;96524.50;5030254;28;20925;-60
2022/01/08 04:03:26;;;;;;;3.80;2.35;;;;;;;-0.09;90.50;96526.97;5030304;28;20053;-60
2022/01/08 04:05:52;;;;;;;5.28;3.25;;;;;;;-0.13;91.14;96529.25;5032291;28;20037;-60
2022/01/08 04:08:19;;;;;;;5.45;3.08;;;;;;;-0.08;90.58;96534.75;5037564;28;20432;-60
2022/01/08 04:10:46;;;;;;;5.45;2.83;;;;;;;-0.07;90.91;96531.06;5030765;28;20049;-59
2022/01/08 04:13:18;;;;;;;6.32;3.28;;;;;;;-0.10;90.93;96523.50;5037277;28;20053;-60
2022/01/08 04:15:46;;;;;;;4.43;2.40;;;;;;;-0.09;90.94;96527.81;5032566;28;20037;-59
2022/01/08 04:18:13;;;;;;;4.97;2.63;;;;;;;-0.09;91.32;96534.97;5045468;28;20036;-58
2022/01/08 04:23:21;;;;;;;5.22;2.33;;;;;;;0.03;90.37;96543.16;5028266;28;20416;-60
2022/01/08 04:25:49;;;;;;;4.40;2.30;;;;;;;0.05;90.45;96544.59;5032487;28;20052;-60
2022/01/08 04:28:16;;;;;;;3.60;1.88;;;;;;;0.10;90.48;96557.28;5039569;28;20048;-59
2022/01/08 04:30:43;;;;;;;3.78;1.70;;;;;;;0.16;90.71;96555.66;5041012;28;20416;-60
2022/01/08 04:33:10;;;;;;;4.10;1.48;;;;;;;0.09;90.25;96563.63;5031063;28;20110;-60
2022/01/08 04:35:37;;;;;;;3.13;1.58;;;;;;;0.01;90.50;96563.84;5030827;28;20516;-60
2022/01/08 04:38:04;;;;;;;2.58;1.50;;;;;;;0.09;90.32;96583.09;5047288;28;20040;-59
2022/01/08 04:40:32;;;;;;;1.05;0.68;;;;;;;0.10;90.45;96579.41;5035041;28;20048;-60
2022/01/08 04:43:00;;;;;;;1.73;0.88;;;;;;;-0.01;90.33;96588.00;5039066;28;20052;-58
2022/01/08 04:45:31;;;;;;;1.27;0.75;;;;;;;0.01;90.12;96582.47;5033671;28;20049;-59
2022/01/08 04:48:00;;;;;;;3.42;0.90;;;;;;;-0.30;91.09;96593.47;5032756;28;20056;-59
2022/01/08 04:50:28;;;;;;;1.55;0.95;;;;;;;-0.28;91.22;96595.94;5034707;28;20037;-58
2022/01/08 04:52:56;;;;;;;2.00;1.23;;;;;;;-0.23;91.27;96601.47;5038153;28;20528;-58
2022/01/08 04:55:23;;;;;;;1.27;0.73;;;;;;;-0.14;91.08;96608.25;5042450;28;20041;-59
2022/01/08 04:57:49;;;;;;;3.30;0.90;;;;;;;-0.13;91.17;96609.06;5037489;28;20076;-60
2022/01/08 05:00:19;;;;;;;1.95;0.90;;;;;;;-0.22;91.21;96616.41;5030885;28;20075;-60
2022/01/08 05:02:46;;;;;;;2.67;1.05;;;;;;;-0.19;91.26;96624.00;5026500;28;20044;-59
2022/01/08 05:05:13;;;;;;;2.20;1.13;;;;;;;-0.22;91.49;96627.06;5040700;28;20115;-59
2022/01/08 05:07:40;;;;;;;1.27;0.70;;;;;;;-0.30;91.52;96637.88;5035420;28;20068;-59
2022/01/08 05:10:07;;;;;;;2.03;0.73;;;;;;;-0.32;91.58;96638.09;5029673;28;20045;-60
2022/01/08 05:12:34;;;;;;;2.50;0.90;;;;;;;-0.34;92.14;96642.78;5031941;28;20041;-60
2022/01/08 05:15:02;;;;;;;2.65;0.73;;;;;;;-0.36;91.91;96649.34;5037586;28;20048;-60
2022/01/08 05:17:34;;;;;;;0.68;0.40;;;;;;;-0.31;91.94;96654.88;5044082;28;20704;-59
2022/01/08 05:20:08;;;;;;;0.38;0.25;;;;;;;-0.16;91.67;96663.53;5029968;28;20033;-60
2022/01/08 05:23:09;;;;;;;0.43;0.28;;;;;;;-0.03;90.30;96669.91;5027452;28;20045;-60
2022/01/08 05:25:29;;;;;;;0.85;0.45;;;;;;;0.01;90.17;96673.78;5039431;28;20057;-59
2022/01/08 05:27:57;;;;;;;0.40;0.30;;;;;;;0.06;90.14;96683.81;5033181;28;20048;-60
2022/01/08 05:30:25;;;;;;;0.95;0.60;;;;;;;0.14;89.64;96674.84;5029428;28;20033;-60
2022/01/08 05:32:52;;;;;;;1.85;0.63;;;;;;;0.17;89.64;96685.91;5031295;28;20036;-61
2022/01/08 05:35:21;;;;;;;2.65;0.60;;;;;;;0.01;89.84;96694.25;5031961;28;20076;-60
2022/01/08 05:37:47;;;;;;;1.25;0.75;;;;;;;-0.01;90.10;96697.94;5027682;28;20044;-59
2022/01/08 05:40:14;;;;;;;1.38;0.70;;;;;;;0.09;89.80;96718.03;5026547;28;20041;-59
2022/01/08 05:42:41;;;;;;;2.00;1.02;;;;;;;-0.03;90.32;96728.44;5034042;28;20041;-60
2022/01/08 05:45:09;;;;;;;0.85;0.70;;;;;;;-0.03;90.55;96742.56;5031837;28;20180;-60
2022/01/08 05:47:36;;;;;;;1.83;1.02;;;;;;;-0.08;90.10;96747.66;5026891;28;20528;-60
2022/01/08 05:50:05;;;;;;;2.67;1.00;;;;;;;-0.13;90.26;96766.06;5025750;28;20061;-59
2022/01/08 05:52:32;;;;;;;1.08;0.80;;;;;;;-0.19;90.20;96782.84;5028618;28;20037;-60
2022/01/08 05:54:58;;;;;;;1.20;0.70;;;;;;;-0.19;89.83;96793.50;5026077;28;20044;-59
2022/01/08 05:57:25;;;;;;;1.48;1.00;;;;;;;-0.28;89.47;96801.63;5025501;28;20056;-59
2022/01/08 05:59:52;;;;;;;0.90;0.60;;;;;;;-0.26;89.19;96809.41;5026381;28;20040;-58
2022/01/08 06:02:18;;;;;;;0.60;0.52;;;;;;;-0.29;89.09;96820.44;5028444;28;20052;-57
2022/01/08 06:04:45;;;;;;;2.65;0.52;;;;;;;-0.28;89.42;96838.06;5034904;28;20051;-57
2022/01/08 06:07:14;;;;;;;1.85;0.60;;;;;;;-0.29;88.74;96847.88;5028333;28;20492;-59
2022/01/08 06:09:41;;;;;;;1.27;0.73;;;;;;;-0.30;88.75;96845.41;5025244;28;20111;-59
2022/01/08 06:12:08;;;;;;;0.90;0.70;;;;;;;-0.39;89.19;96844.75;5035221;28;20044;-59
2022/01/08 06:14:35;;;;;;;2.08;0.82;;;;;;;-0.40;90.03;96857.22;5024895;28;20030;-59
2022/01/08 06:17:03;;;;;;;1.52;0.68;;;;;;;-0.32;89.01;96858.91;5028173;28;20049;-60
2022/01/08 06:19:30;;;;;;;1.15;0.50;;;;;;;-0.32;89.34;96866.91;5025743;28;20060;-58
2022/01/08 06:21:56;;;;;;;0.98;0.60;;;;;;;-0.33;88.71;96873.22;5030709;28;20495;-60
2022/01/08 06:24:23;;;;;;;1.25;0.73;;;;;;;-0.34;89.31;96887.53;5031964;28;20050;-59
2022/01/08 06:26:49;;;;;;;1.20;0.70;;;;;;;-0.33;89.09;96883.06;5039364;28;20044;-61
2022/01/08 06:29:16;;;;;;;1.98;1.00;;;;;;;-0.34;89.02;96897.38;5024686;28;20037;-62
2022/01/08 06:31:43;;;;;;;2.13;0.90;;;;;;;-0.37;88.99;96901.22;5024146;28;20049;-62
2022/01/08 06:34:10;;;;;;;1.10;0.70;;;;;;;-0.33;89.49;96909.66;5033378;28;20052;-62
2022/01/08 06:36:36;;;;;;;1.63;0.90;;;;;;;-0.42;88.89;96923.09;5026403;28;20528;-62
2022/01/08 06:39:03;;;;;;;1.75;1.00;;;;;;;-0.43;88.49;96925.94;5042251;28;20048;-63
2022/01/08 06:41:30;;;;;;;1.65;0.82;;;;;;;-0.45;89.21;96936.78;5033153;28;20144;-62
2022/01/08 06:43:57;;;;;;;2.95;1.05;;;;;;;-0.45;88.99;96936.78;5032614;28;20115;-63
2022/01/08 06:46:25;;;;;;;3.20;0.90;;;;;;;-0.43;88.40;96949.88;5035639;28;20057;-63
2022/01/08 06:48:51;;;;;;;1.20;0.88;;;;;;;-0.45;88.51;96949.25;5024097;28;20615;-62
2022/01/08 06:51:18;;;;;;;2.45;1.30;;;;;;;-0.46;88.27;96976.88;5031563;28;20034;-62
2022/01/08 06:53:45;;;;;;;1.70;1.10;;;;;;;-0.43;88.62;96969.34;5037276;28;20033;-62
2022/01/08 06:56:12;;;;;;;3.28;1.10;;;;;;;-0.44;88.22;96978.31;5044290;28;20056;-62
2022/01/08 06:58:41;;;;;;;2.42;1.02;;;;;;;-0.46;88.65;96984.84;5026135;28;20053;-61
2022/01/08 07:01:08;;;;;;;2.95;1.17;;;;;;;-0.52;89.99;96991.75;5020478;28;20521;-63
2022/01/08 07:03:34;;;;;;;3.17;1.58;;;;;;;-0.52;89.87;96989.09;5021100;28;20042;-62
2022/01/08 07:06:01;;;;;;;3.45;1.70;;;;;;;-0.48;89.58;97003.66;5019262;28;20055;-63
2022/01/08 07:08:28;;;;;;;2.78;1.40;;;;;;;-0.53;89.22;97001.56;5027652;28;20045;-62
2022/01/08 07:10:54;;;;;;;2.50;1.40;;;;;;;-0.53;90.21;97028.16;5031144;28;20048;-63
2022/01/08 07:13:21;;;;;;;3.00;1.42;;;;;;;-0.61;89.64;97030.94;5030763;28;20501;-61
2022/01/08 07:15:48;;;;;;;3.53;1.73;;;;;;;-0.68;90.81;97035.38;5026201;28;20044;-62
2022/01/08 07:18:14;;;;;;;4.45;1.75;;;;;;;-0.67;90.71;97044.97;5018185;28;20037;-61
2022/01/08 07:20:41;;;;;;;3.33;1.45;;;;;;;-0.67;90.64;97051.13;5019610;28;20038;-62
2022/01/08 07:23:08;;;;;;;4.55;1.98;;;;;;;-0.75;90.64;97045.09;5026874;28;20052;-62
2022/01/08 07:25:34;;;;;;;4.75;1.75;;;;;;;-0.76;90.95;97051.44;5024506;28;20489;-61
2022/01/08 07:28:01;;;;;;;6.55;1.70;;;;;;;-0.69;90.13;97063.81;5027511;28;20694;-63
2022/01/08 07:30:28;;;;;;;2.90;1.33;;;;;;;-0.69;90.06;97074.44;5027547;28;20046;-62
2022/01/08 07:32:54;;;;;;;4.22;1.58;;;;;;;-0.69;90.48;97079.75;5024201;28;20048;-61
2022/01/08 07:35:22;;;;;;;3.28;1.67;;;;;;;-0.68;90.48;97078.75;5023707;28;20041;-61
2022/01/08 07:37:51;;;;;;;6.15;1.75;;;;;;;-0.61;90.55;97085.97;5027059;28;20052;-62
2022/01/08 07:40:19;;;;;;;3.90;1.40;;;;;;;-0.36;89.43;97089.13;5030528;28;20049;-63
2022/01/08 07:42:46;;;;;;;3.95;1.92;;;;;;;-0.34;87.61;97103.03;5027424;28;20414;-63
2022/01/08 07:45:15;;;;;;;2.30;1.10;;;;;;;-0.40;87.51;97109.94;5023975;28;20041;-63
2022/01/08 07:47:42;;;;;;;2.10;1.35;;;;;;;-0.30;88.33;97112.28;5032519;28;20041;-63
2022/01/08 07:50:09;;;;;;;3.50;1.42;;;;;;;-0.28;87.02;97115.59;5035097;28;20472;-63
2022/01/08 07:52:36;;;;;;;4.05;1.15;;;;;;;-0.22;85.97;97123.84;5023899;28;20045;-62
2022/01/08 07:55:03;;;;;;;2.40;1.10;;;;;;;0.14;88.82;97130.13;5023131;28;20076;-62
2022/01/08 07:57:30;;;;;;;3.53;1.42;;;;;;;0.06;85.18;97147.03;5026909;28;20049;-62
2022/01/08 07:59:56;;;;;;;2.40;1.20;;;;;;;-0.03;84.85;97149.81;5039775;28;20208;-62
2022/01/08 08:02:23;;;;;;;1.25;0.70;;;;;;;0.03;84.55;97158.88;5026951;28;20566;-64
2022/01/08 08:04:50;;;;;;;1.50;1.00;;;;;;;0.16;85.83;97166.19;5037733;28;20053;-63
2022/01/08 08:07:28;;;;;;;2.45;0.90;;;;;;;0.08;83.69;97174.31;5032359;28;20124;-61
2022/01/08 08:09:55;;;;;;;2.15;1.20;;;;;;;-0.18;84.61;97176.47;5022920;28;20041;-61
2022/01/08 08:12:23;;;;;;;3.85;1.15;;;;;;;-0.30;84.97;97181.47;5028171;28;20049;-61
2022/01/08 08:14:49;;;;;;;2.78;1.10;;;;;;;-0.25;85.10;97182.75;5023169;28;20042;-61
2022/01/08 08:17:16;;;;;;;6.47;1.50;;;;;;;-0.25;85.53;97182.75;5020934;28;20098;-60
2022/01/08 08:19:43;;;;;;;2.88;1.10;;;;;;;-0.31;85.42;97184.31;5018849;28;20424;-60
2022/01/08 08:22:09;;;;;;;4.18;1.88;;;;;;;-0.33;85.73;97194.34;5022263;28;20042;-61
2022/01/08 08:24:36;;;;;;;2.78;1.27;;;;;;;-0.31;85.20;97190.47;5024107;28;20045;-62
2022/01/08 08:27:03;;;;;;;2.28;0.90;;;;;;;-0.22;85.15;97198.34;5022084;28;20037;-61
2022/01/08 08:29:30;;;;;;;1.98;1.00;;;;;;;-0.15;84.28;97201.88;5026418;28;20045;-62
2022/01/08 08:31:57;;;;;;;3.25;1.13;;;;;;;-0.16;84.86;97209.06;5032004;28;20053;-60
2022/01/08 08:34:23;;;;;;;3.17;1.13;;;;;;;-0.23;84.75;97210.00;5026207;28;20041;-60
2022/01/08 08:36:50;;;;;;;1.70;0.98;;;;;;;-0.21;84.76;97216.78;5026842;28;20041;-62
2022/01/08 08:39:16;;;;;;;2.78;1.50;;;;;;;-0.16;85.34;97218.88;5025601;28;20643;-62
2022/01/08 08:41:43;;;;;;;5.15;2.40;;;;;;;-0.19;84.96;97227.25;5024979;28;20046;-61
2022/01/08 08:44:10;;;;;;;4.00;1.60;;;;;;;-0.27;84.53;97222.84;5028722;28;20041;-61
2022/01/08 08:46:39;;;;;;;3.63;1.88;;;;;;;-0.31;84.26;97240.19;5019748;28;20042;-61
2022/01/08 08:49:06;;;;;;;4.40;1.60;;;;;;;-0.32;84.33;97239.38;5025178;28;20052;-60
2022/01/08 08:51:32;;;;;;;1.52;1.00;;;;;;;-0.29;83.32;97238.19;5027502;28;20484;-62
2022/01/08 08:54:00;;;;;;;5.13;1.85;;;;;;;-0.27;83.78;97238.81;5033216;28;20476;-60
2022/01/08 08:56:28;;;;;;;3.80;1.30;;;;;;;-0.23;83.72;97241.94;5026521;28;20041;-62
2022/01/08 08:58:55;;;;;;;4.65;1.75;;;;;;;-0.19;82.04;97248.53;5022633;28;20238;-62
2022/01/08 09:01:23;;;;;;;8.85;2.00;;;;;;;-0.05;82.81;97246.84;5026461;28;20045;-62
2022/01/08 09:03:49;;;;;;;4.28;1.15;;;;;;;0.02;83.21;97244.25;5029405;28;20756;-61
2022/01/08 09:06:17;;;;;;;5.10;1.45;;;;;;;-0.04;81.96;97240.53;5035932;28;20044;-61
2022/01/08 09:08:49;;;;;;;4.28;1.52;;;;;;;-0.08;81.12;97256.03;5037624;28;20123;-60
2022/01/08 09:11:15;;;;;;;3.63;1.10;;;;;;;-0.09;80.61;97261.53;5025427;28;20044;-62
2022/01/08 09:13:42;;;;;;;3.55;1.38;;;;;;;-0.06;81.01;97262.00;5014120;28;20069;-61
2022/01/08 09:16:09;;;;;;;1.65;1.27;;;;;;;-0.07;81.09;97268.31;5031337;28;20041;-61
2022/01/08 09:18:37;;;;;;;3.50;1.77;;;;;;;-0.18;80.92;97266.16;5024261;28;20772;-62
2022/01/08 09:21:05;;;;;;;2.38;1.50;;;;;;;-0.13;80.63;97271.75;5022098;28;20030;-62
2022/01/08 09:23:33;;;;;;;3.78;1.52;;;;;;;-0.19;80.74;97270.63;5020577;28;20058;-62
2022/01/08 09:26:01;;;;;;;3.28;1.23;;;;;;;-0.12;80.95;97260.06;5021740;28;20059;-61
2022/01/08 09:28:28;;;;;;;4.43;2.15;;;;;;;-0.04;81.80;97267.16;5027952;28;20654;-62
2022/01/08 09:30:55;;;;;;;4.03;1.30;;;;;;;0.07;80.15;97271.16;5026337;28;20084;-61
2022/01/08 09:33:22;;;;;;;2.63;1.40;;;;;;;0.02;80.39;97270.88;5036163;28;20049;-61
2022/01/08 09:35:50;;;;;;;4.40;1.58;;;;;;;0.03;81.03;97276.03;5033300;28;20060;-61
2022/01/08 09:38:16;;;;;;;2.85;1.55;;;;;;;-0.02;81.47;97270.44;5031261;28;20052;-60
2022/01/08 09:40:48;;;;;;;4.97;2.13;;;;;;;0.15;80.80;97273.72;5022273;28;20451;-62
2022/01/08 09:43:17;;;;;;;5.50;2.20;;;;;;;0.30;80.89;97270.19;5020013;28;20042;-61
2022/01/08 09:45:44;;;;;;;3.13;1.50;;;;;;;0.36;80.72;97275.56;5020879;28;20033;-61
2022/01/08 09:48:11;;;;;;;4.78;2.00;;;;;;;0.35;80.00;97278.44;5018549;28;20042;-60
2022/01/08 09:50:40;;;;;;;3.58;1.30;;;;;;;0.35;79.64;97284.59;5023215;28;20029;-61
2022/01/08 09:53:07;;;;;;;6.22;1.70;;;;;;;0.44;78.89;97287.94;5025772;28;20042;-60
2022/01/08 09:55:33;;;;;;;2.28;1.20;;;;;;;0.53;79.35;97280.66;5024112;28;20056;-61
2022/01/08 09:58:00;;;;;;;4.55;1.83;;;;;;;0.36;80.97;97280.91;5018511;28;20042;-61
2022/01/08 10:00:28;;;;;;;3.55;1.55;;;;;;;0.48;79.31;97286.56;5022704;28;20044;-62
2022/01/08 10:03:12;;;;;;;3.85;1.70;;;;;;;0.31;79.64;97293.13;5024329;28;20825;-61
2022/01/08 10:05:50;;;;;;;5.63;1.92;;;;;;;0.31;80.08;97290.47;5024110;28;20087;-60
2022/01/08 10:08:41;;;;;;;3.92;1.77;;;;;;;0.18;78.90;97291.16;5031425;28;20038;-60
2022/01/08 10:11:08;;;;;;;1.95;1.10;;;;;;;0.29;78.81;97290.66;5036003;28;20076;-61
2022/01/08 10:13:40;;;;;;;6.03;2.00;;;;;;;0.35;78.90;97300.56;5027205;28;20057;-62
2022/01/08 10:18:56;;;;;;;5.32;1.90;;;;;;;0.49;77.62;97295.38;5027631;28;20041;-60
2022/01/08 10:21:26;;;;;;;5.07;2.10;;;;;;;0.62;76.76;97290.19;5024806;28;20037;-63
2022/01/08 10:23:59;;;;;;;4.85;2.72;;;;;;;0.48;77.34;97288.41;5027542;28;20041;-65
2022/01/08 10:26:33;;;;;;;4.55;2.13;;;;;;;0.42;76.94;97289.97;5029753;28;20077;-62
2022/01/08 10:29:14;;;;;;;6.10;2.30;;;;;;;0.44;76.74;97279.94;5033321;28;20045;-63
2022/01/08 10:31:43;;;;;;;2.60;1.45;;;;;;;0.48;76.47;97269.75;5039256;28;20508;-62
2022/01/08 10:34:11;;;;;;;8.48;1.55;;;;;;;0.54;76.10;97270.81;5035585;28;20095;-62
2022/01/08 10:36:40;;;;;;;7.80;3.58;;;;;;;0.65;75.98;97272.97;5027571;28;20484;-61
2022/01/08 10:39:10;;;;;;;6.30;1.73;;;;;;;0.61;75.27;97269.88;5023392;28;20048;-65
2022/01/08 10:41:42;;;;;;;7.63;1.45;;;;;;;0.73;74.84;97270.19;5026476;28;20041;-62
2022/01/08 10:44:18;;;;;;;8.60;2.42;;;;;;;0.79;74.85;97271.28;5032638;28;20561;-63
2022/01/08 10:46:57;;;;;;;9.20;2.35;;;;;;;0.78;76.16;97258.97;5038793;28;20102;-62
2022/01/08 10:49:47;;;;;;;6.45;1.70;;;;;;;0.97;75.70;97260.16;5027885;28;20143;-64
2022/01/08 10:52:20;;;;;;;4.20;1.80;;;;;;;0.98;74.30;97267.13;5030181;28;20054;-64
2022/01/08 10:54:57;;;;;;;3.83;1.13;;;;;;;1.22;73.23;97257.03;5027869;28;20048;-63
2022/01/08 10:57:32;;;;;;;11.77;3.90;;;;;;;1.29;71.23;97255.22;5025217;28;20054;-62
2022/01/08 10:59:59;;;;;;;2.00;0.90;;;;;;;1.37;72.79;97253.44;5029645;28;20060;-63
2022/01/08 11:02:28;;;;;;;4.00;1.38;;;;;;;1.33;70.55;97257.53;5034477;28;20049;-63
2022/01/08 11:04:55;;;;;;;2.17;0.98;;;;;;;1.34;71.44;97253.81;5028623;28;20741;-62
2022/01/08 11:07:27;;;;;;;4.53;2.35;;;;;;;1.16;69.83;97257.81;5030406;28;20053;-64
2022/01/08 11:10:22;;;;;;;7.45;3.38;;;;;;;1.02;71.02;97254.22;5022844;28;20048;-62
2022/01/08 11:12:51;;;;;;;4.38;1.67;;;;;;;0.89;72.24;97250.44;5013942;28;20568;-66
2022/01/08 11:17:54;;;;;;;4.47;0.93;;;;;;;0.72;72.20;97233.06;5021798;28;20045;-66
2022/01/08 11:20:43;;;;;;;3.40;0.77;;;;;;;0.82;72.49;97228.25;5019650;28;20456;-63
2022/01/08 11:23:11;;;;;;;9.23;1.48;;;;;;;0.99;74.22;97225.31;5034162;28;20065;-63
2022/01/08 11:25:38;;;;;;;5.93;1.25;;;;;;;0.96;74.31;97231.00;5024300;28;20045;-63
2022/01/08 11:28:11;;;;;;;4.07;1.45;;;;;;;0.98;76.16;97227.13;5035454;28;20112;-61
2022/01/08 11:30:43;;;;;;;3.03;1.35;;;;;;;0.96;75.10;97245.16;5026934;28;20045;-63
2022/01/08 11:33:33;;;;;;;7.30;2.00;;;;;;;0.95;74.08;97232.03;5018981;28;20112;-62
2022/01/08 11:36:00;;;;;;;4.88;2.25;;;;;;;1.16;75.08;97231.97;5027245;28;20045;-61
2022/01/08 11:38:28;;;;;;;4.40;2.00;;;;;;;1.36;74.39;97220.59;5029387;28;20048;-62
2022/01/08 11:40:56;;;;;;;3.60;1.27;;;;;;;1.37;73.47;97216.91;5029987;28;20037;-62
2022/01/08 11:43:27;;;;;;;6.10;1.80;;;;;;;1.46;73.83;97209.56;5025111;28;20052;-62
2022/01/08 11:45:53;;;;;;;4.70;2.15;;;;;;;1.36;72.81;97209.13;5025751;28;20427;-61
2022/01/08 11:48:32;;;;;;;8.73;3.60;;;;;;;1.33;72.32;97213.00;5026793;28;20049;-63
2022/01/08 11:51:00;;;;;;;5.15;1.10;;;;;;;1.41;72.38;97196.00;5024188;28;20048;-61
2022/01/08 11:53:30;;;;;;;3.95;1.90;;;;;;;1.32;72.70;97189.19;5024100;28;20633;-64
2022/01/08 11:55:59;;;;;;;2.13;1.00;;;;;;;1.40;74.41;97181.81;5032422;28;20046;-63
2022/01/08 11:58:30;;;;;;;3.83;1.63;;;;;;;1.38;72.81;97183.88;5029215;28;20037;-62
2022/01/08 12:01:12;;;;;;;3.53;1.40;;;;;;;1.30;72.95;97184.84;5028042;28;20044;-62
2022/01/08 12:03:50;;;;;;;1.83;1.20;;;;;;;1.13;73.31;97180.84;5029677;28;20037;-62
2022/01/08 12:06:31;;;;;;;3.97;1.13;;;;;;;1.10;73.54;97178.59;5029836;28;20056;-63
2022/01/08 12:09:27;;;;;;;4.03;1.70;;;;;;;1.04;73.77;97173.00;5023536;28;20049;-62